Latest Coastal Weather Observations for Mandurah

IDW60701

Issued at 1:35 am WST Sunday 4 December 2016 (issued every 10 minutes, with the page automatically refreshed every 10 minutes)

About coastal observations | Map of coastal stations | Coastal observations for WA | Marine services | Other Formats
Station Details ID: 009977 Name: MANDURAH Lat: -32.52 Lon: 115.71 Height: 3.0 m
Data from the previous 72 hours. | See also: Recent months at Mandurah
Date/Time
WST
Temp
°C
Wind Pressure Rain since
9am
mm
Weather Cloud Vis
km
Sea
Height
m
Swell
Dir  Spd
kts
Gust
kts
hPa Trend Height
m
Period
s
Dir
04/01:30am 17.4 SSW 6 11 1011.3 - 1.0 - - - - - - -
04/01:00am 17.5 SSW 8 13 1011.3 - 1.0 - - - - - - -
04/12:30am 17.8 SSW 8 11 1011.4 - 1.0 - - - - - - -
04/12:00am 17.9 SSW 9 13 1011.4 - 1.0 - - - - - - -
 
Date/Time
WST
Temp
°C
Wind Pressure Rain since
9am
mm
Weather Cloud Vis
km
Sea
Height
m
Swell
Dir  Spd
kts
Gust
kts
hPa Trend Height
m
Period
s
Dir
03/11:30pm 17.9 SSW 7 13 1011.3 - 1.0 - - - - - - -
03/11:00pm 18.1 S 7 14 1011.1 - 1.0 - - - - - - -
03/10:30pm 18.4 SSW 7 12 1011.2 - 1.0 - - - - - - -
03/10:00pm 18.5 SSW 8 13 1011.0 - 1.0 - - - - - - -
03/09:30pm 18.5 SW 6 9 1010.8 - 1.0 - - - - - - -
03/09:00pm 18.7 SSW 7 11 1010.6 - 1.0 - - - - - - -
03/08:30pm 18.7 SSW 6 9 1010.6 - 1.0 - - - - - - -
03/08:00pm 18.9 SSW 7 10 1010.2 - 1.0 - - - - - - -
03/07:30pm 19.1 SW 8 11 1009.9 - 1.0 - - - - - - -
03/07:00pm 19.3 WSW 10 16 1009.5 - 1.0 - - - - - - -
03/06:30pm 19.4 WSW 8 14 1009.4 - 1.0 - - - - - - -
03/06:00pm 19.6 WSW 12 17 1009.1 - 1.0 - - - - - - -
03/05:30pm 18.9 W 10 18 1008.8 - 1.0 - - - - - - -
03/05:00pm 19.6 WSW 11 19 1008.7 - 1.0 - - - - - - -
03/04:30pm 20.8 W 9 11 1008.4 - 0.0 - - - - - - -
03/04:00pm 21.6 WNW 7 10 1008.5 - 0.0 - - - - - - -
03/03:30pm 21.4 WNW 6 8 1008.5 - 0.0 - - - - - - -
03/03:00pm 19.7 W 5 9 1008.7 - 0.0 - - - - - - -
03/02:30pm 20.6 W 9 13 1008.6 - 0.0 - - - - - - -
03/02:00pm 19.9 W 8 11 1008.7 - 0.0 - - - - - - -
03/01:30pm 19.3 W 14 19 1008.9 - 0.0 - - - - - - -
03/01:00pm 21.2 WNW 9 11 1008.7 - 0.0 - - - - - - -
03/12:30pm 20.7 WNW 8 12 1008.9 - 0.0 - - - - - - -
03/12:00pm 20.7 WNW 7 10 1009.1 - 0.0 - - - - - - -
03/11:30am 20.7 W 9 13 1009.4 - 0.0 - - - - - - -
03/11:00am 20.1 WNW 8 11 1009.4 - 0.0 - - - - - - -
03/10:30am 20.1 WNW 8 11 1009.4 - 0.0 - - - - - - -
03/10:00am 20.1 W 6 10 1009.2 - 0.0 - - - - - - -
03/09:30am 19.9 W 6 10 1009.2 - 0.0 - - - - - - -
03/09:00am 19.5 WSW 6 10 1009.1 - 0.0 - - - - - - -
03/08:30am 18.0 CALM 0 5 1009.3 - 0.0 - - - - - - -
03/08:00am 17.2 SSE 3 5 1009.0 - 0.0 - - - - - - -
03/07:30am 16.5 SSE 2 4 1008.7 - 0.0 - - - - - - -
03/07:00am 16.5 SSE 4 6 1008.5 - 0.0 - - - - - - -
03/06:30am 16.0 SSE 4 7 1008.5 - 0.0 - - - - - - -
03/06:00am 15.3 SE 2 3 1008.1 - 0.0 - - - - - - -
03/05:30am 15.0 SE 3 5 1008.0 - 0.0 - - - - - - -
03/05:00am 14.7 SE 3 5 1007.9 - 0.0 - - - - - - -
03/04:30am 15.4 ESE 3 4 1007.5 - 0.0 - - - - - - -
03/04:00am 16.9 SSW 6 11 1007.1 - 0.0 - - - - - - -
03/03:30am 16.9 SSW 7 10 1007.0 - 0.0 - - - - - - -
03/03:00am 16.9 SSW 7 12 1007.2 - 0.0 - - - - - - -
03/02:30am 17.3 SSW 7 12 1007.3 - 0.0 - - - - - - -
03/02:00am 17.3 SW 8 12 1007.5 - 0.0 - - - - - - -
03/01:30am 17.6 SW 5 10 1007.6 - 0.0 - - - - - - -
03/01:00am 17.8 SSW 6 10 1007.5 - 0.0 - - - - - - -
03/12:30am 18.0 SSW 6 11 1007.8 - 0.0 - - - - - - -
03/12:00am 18.2 SSW 9 13 1008.0 - 0.0 - - - - - - -
 
Date/Time
WST
Temp
°C
Wind Pressure Rain since
9am
mm
Weather Cloud Vis
km
Sea
Height
m
Swell
Dir  Spd
kts
Gust
kts
hPa Trend Height
m
Period
s
Dir
02/11:30pm 18.5 SSW 8 13 1008.4 - 0.0 - - - - - - -
02/11:00pm 18.9 SSW 8 15 1008.7 - 0.0 - - - - - - -
02/10:30pm 18.9 SW 7 10 1008.7 - 0.0 - - - - - - -
02/10:00pm 18.9 SW 6 11 1008.8 - 0.0 - - - - - - -
02/09:30pm 18.7 SSW 5 8 1009.0 - 0.0 - - - - - - -
02/09:00pm 18.8 SSW 5 9 1009.0 - 0.0 - - - - - - -
02/08:30pm 19.1 SSW 5 8 1009.2 - 0.0 - - - - - - -
02/08:00pm 19.1 SSW 6 9 1009.2 - 0.0 - - - - - - -
02/07:30pm 19.5 SSW 6 9 1009.3 - 0.0 - - - - - - -
02/07:00pm 19.7 SSW 8 13 1009.4 - 0.0 - - - - - - -
02/06:30pm 19.8 SSW 9 13 1009.5 - 0.0 - - - - - - -
02/06:00pm 20.4 SSW 9 13 1009.4 - 0.0 - - - - - - -
02/05:30pm 20.9 SSW 8 13 1009.1 - 0.0 - - - - - - -
02/05:00pm 21.3 SW 11 18 1009.1 - 0.0 - - - - - - -
02/04:30pm 21.8 WSW 13 18 1009.2 - 0.0 - - - - - - -
02/04:00pm 22.2 SW 12 17 1009.3 - 0.0 - - - - - - -
02/03:30pm 22.4 SW 11 17 1009.5 - 0.0 - - - - - - -
02/03:00pm 22.6 SW 13 17 1009.8 - 0.0 - - - - - - -
02/02:30pm 22.7 SW 12 16 1010.0 - 0.0 - - - - - - -
02/02:00pm 23.0 WSW 12 17 1010.2 - 0.0 - - - - - - -
02/01:30pm 22.6 WSW 13 17 1010.4 - 0.0 - - - - - - -
02/01:00pm 23.3 WSW 13 18 1010.6 - 0.0 - - - - - - -
02/12:30pm 23.3 WSW 13 18 1011.0 - 0.0 - - - - - - -
02/12:00pm 22.8 WSW 11 15 1011.1 - 0.0 - - - - - - -
02/11:30am 24.0 W 8 10 1011.3 - 0.0 - - - - - - -
02/11:00am 22.0 WNW 7 10 1011.7 - 0.0 - - - - - - -
02/10:30am 23.4 NW 5 6 1012.1 - 0.0 - - - - - - -
02/10:00am 24.0 E 4 8 1012.4 - 0.0 - - - - - - -
02/09:30am 22.3 E 3 6 1012.8 - 0.0 - - - - - - -
02/09:00am 21.5 ENE 4 7 1013.3 - 0.0 - - - - - - -
02/08:30am 19.8 E 5 9 1013.6 - 0.0 - - - - - - -
02/08:00am 18.8 ESE 6 9 1013.6 - 0.0 - - - - - - -
02/07:30am 17.3 ESE 7 11 1013.9 - 0.0 - - - - - - -
02/07:00am 16.4 ESE 6 9 1014.1 - 0.0 - - - - - - -
02/06:30am 15.2 E 7 11 1014.0 - 0.0 - - - - - - -
02/06:00am 14.6 E 6 9 1013.8 - 0.0 - - - - - - -
02/05:30am 14.1 ESE 6 9 1013.5 - 0.0 - - - - - - -
02/05:00am 14.3 ESE 6 9 1013.6 - 0.0 - - - - - - -
02/04:30am 14.5 ESE 5 8 1013.5 - 0.0 - - - - - - -
02/04:00am 14.8 ESE 6 8 1013.3 - 0.0 - - - - - - -
02/03:30am 15.0 SE 5 7 1013.4 - 0.0 - - - - - - -
02/03:00am 15.3 ESE 7 11 1013.1 - 0.0 - - - - - - -
02/02:30am 15.8 SE 6 10 1013.4 - 0.0 - - - - - - -
02/02:00am 15.9 SE 8 12 1013.1 - 0.0 - - - - - - -
02/01:30am 16.3 SSE 8 11 1013.1 - 0.0 - - - - - - -
02/01:00am 16.3 SSE 7 11 1013.3 - 0.0 - - - - - - -
02/12:30am 16.6 SSE 8 12 1013.5 - 0.0 - - - - - - -
02/12:00am 16.9 SSE 9 15 1013.6 - 0.0 - - - - - - -
 
Date/Time
WST
Temp
°C
Wind Pressure Rain since
9am
mm
Weather Cloud Vis
km
Sea
Height
m
Swell
Dir  Spd
kts
Gust
kts
hPa Trend Height
m
Period
s
Dir
01/11:30pm 17.1 SSE 10 15 1013.7 - 0.0 - - - - - - -
01/11:00pm 17.3 S 11 17 1014.0 - 0.0 - - - - - - -
01/10:30pm 17.8 S 12 18 1014.1 - 0.0 - - - - - - -
01/10:00pm 18.1 S 13 19 1014.1 - 0.0 - - - - - - -
01/09:30pm 18.4 S 13 20 1014.2 - 0.0 - - - - - - -
01/09:00pm 19.1 S 12 18 1014.1 - 0.0 - - - - - - -
01/08:30pm 19.6 S 12 18 1013.9 - 0.0 - - - - - - -
01/08:00pm 19.8 S 11 19 1013.7 - 0.0 - - - - - - -
01/07:30pm 19.9 SSW 12 17 1013.7 - 0.0 - - - - - - -
01/07:00pm 19.9 SSW 10 18 1013.7 - 0.0 - - - - - - -
01/06:30pm 19.9 SSW 10 15 1013.6 - 0.0 - - - - - - -
01/06:00pm 20.1 SSW 11 17 1013.4 - 0.0 - - - - - - -
01/05:30pm 20.4 SSW 12 20 1013.4 - 0.0 - - - - - - -
01/05:00pm 20.7 SSW 13 19 1013.4 - 0.0 - - - - - - -
01/04:30pm 20.9 SSW 12 18 1013.6 - 0.0 - - - - - - -
01/04:00pm 21.3 SSW 11 16 1013.9 - 0.0 - - - - - - -
01/03:30pm 21.4 SW 11 22 1014.1 - 0.0 - - - - - - -
01/03:00pm 21.5 WSW 14 20 1014.2 - 0.0 - - - - - - -
01/02:30pm 21.5 SW 12 17 1014.6 - 0.0 - - - - - - -
01/02:00pm 20.4 SW 13 17 1014.7 - 0.0 - - - - - - -
01/01:30pm 21.5 SW 13 18 1015.1 - 0.0 - - - - - - -
01/01:00pm 21.1 WSW 12 18 1015.2 - 0.0 - - - - - - -
01/12:30pm 21.5 SW 12 17 1015.5 - 0.0 - - - - - - -
01/12:00pm 22.0 WSW 14 18 1015.7 - 0.0 - - - - - - -
01/11:30am 21.1 SW 12 17 1016.0 - 0.0 - - - - - - -
01/11:00am 21.6 SSW 7 14 1016.2 - 0.0 - - - - - - -
01/10:30am 20.5 S 6 10 1016.4 - 0.0 - - - - - - -
01/10:00am 20.4 S 7 13 1016.5 - 0.0 - - - - - - -
01/09:30am 20.4 SSE 7 9 1016.5 - 0.0 - - - - - - -
01/09:00am 19.4 SSE 6 9 1016.6 - 0.0 - - - - - - -
01/08:30am 19.5 SSE 7 12 1016.6 - 0.0 - - - - - - -
01/08:00am 18.4 SSE 7 11 1016.7 - 0.0 - - - - - - -
01/07:30am 17.9 SSE 7 11 1016.5 - 0.0 - - - - - - -
01/07:00am 17.4 SE 7 9 1016.2 - 0.0 - - - - - - -
01/06:30am 16.9 SSE 8 12 1016.0 - 0.0 - - - - - - -
01/06:00am 17.3 SSE 6 8 1015.6 - 0.0 - - - - - - -
01/05:30am 17.1 SSE 3 6 1015.3 - 0.0 - - - - - - -
01/05:00am 17.0 SE 4 5 1015.1 - 0.0 - - - - - - -
01/04:30am 17.2 SE 5 7 1014.9 - 0.0 - - - - - - -
01/04:00am 17.2 SE 4 6 1014.6 - 0.0 - - - - - - -
01/03:30am 17.0 SE 5 7 1014.5 - 0.0 - - - - - - -
01/03:00am 17.0 SE 5 8 1014.6 - 0.0 - - - - - - -
01/02:30am 17.2 SE 5 6 1014.5 - 0.0 - - - - - - -
01/02:00am 17.4 SE 7 9 1014.7 - 0.0 - - - - - - -

Other Formats:

Comma delimited format used in spreadsheet applications
http://www.bom.gov.au/fwo/IDW60701/IDW60701.94605.axf

JavaScript Object Notation format (JSON) in row-major order
http://www.bom.gov.au/fwo/IDW60701/IDW60701.94605.json